Time;durP1;ratioP1;P1;durP2;ratioP2;P2;SDS_P1;SDS_P2;PMS_P1;PMS_P2;Temp;Humidity;BMP_temperature;BMP_pressure;BME280_temperature;BME280_humidity;BME280_pressure;Samples;Min_cycle;Max_cycle;Signal;HPM_P1;HPM_P2
2023/07/01 00:00:58;;;;;;;51.80;28.40;;;18.10;63.40;;;;;;5000337;28;46534;-84
2023/07/01 00:03:24;;;;;;;57.47;30.37;;;18.20;63.30;;;;;;5004346;28;46461;-84
2023/07/01 00:05:50;;;;;;;57.70;30.23;;;18.20;63.20;;;;;;5005272;28;46416;-82
2023/07/01 00:08:15;;;;;;;59.37;28.97;;;18.30;63.20;;;;;;5000907;28;46940;-80
2023/07/01 00:10:41;;;;;;;54.43;29.53;;;18.30;62.90;;;;;;5005584;28;46381;-85
2023/07/01 00:13:07;;;;;;;58.00;29.90;;;18.30;62.60;;;;;;5005438;28;46400;-87
2023/07/01 00:15:33;;;;;;;56.30;30.27;;;18.40;63.60;;;;;;5005827;28;46569;-85
2023/07/01 00:17:59;;;;;;;57.30;30.47;;;18.40;61.90;;;;;;5002565;28;46513;-84
2023/07/01 00:20:31;;;;;;;56.50;31.20;;;18.40;61.90;;;;;;5006195;28;46317;-85
2023/07/01 00:22:56;;;;;;;62.53;28.43;;;18.50;61.80;;;;;;4985520;28;46414;-84
2023/07/01 00:25:23;;;;;;;53.00;30.63;;;18.50;61.90;;;;;;5007407;28;46931;-84
2023/07/01 00:27:49;;;;;;;57.80;29.80;;;18.40;62.30;;;;;;5007983;28;47111;-85
2023/07/01 00:30:14;;;;;;;58.87;31.17;;;18.30;62.70;;;;;;5010600;28;46423;-86
2023/07/01 00:32:40;;;;;;;50.17;29.13;;;18.20;62.90;;;;;;5011842;28;46833;-85
2023/07/01 00:35:06;;;;;;;52.73;27.97;;;18.10;63.00;;;;;;5004179;28;46505;-87
2023/07/01 00:37:31;;;;;;;46.60;26.70;;;18.00;63.60;;;;;;5007211;28;46515;-85
2023/07/01 00:39:57;;;;;;;45.77;26.00;;;17.90;63.90;;;;;;4990804;28;46444;-85
2023/07/01 00:42:22;;;;;;;50.03;27.40;;;17.80;64.20;;;;;;5017598;28;46453;-85
2023/07/01 00:44:48;;;;;;;36.67;20.50;;;17.80;64.30;;;;;;5021502;28;45910;-84
2023/07/01 00:47:14;;;;;;;27.70;15.77;;;17.70;64.50;;;;;;4999225;28;47110;-84
2023/07/01 00:49:40;;;;;;;26.00;14.83;;;17.30;64.70;;;;;;4974578;28;47151;-84
2023/07/01 00:52:07;;;;;;;24.27;13.23;;;17.10;65.20;;;;;;5001503;28;46602;-84
2023/07/01 00:54:34;;;;;;;22.83;12.17;;;16.90;65.20;;;;;;5000148;28;46535;-85
2023/07/01 00:57:03;;;;;;;22.27;13.40;;;16.70;65.80;;;;;;4999389;28;46411;-83
2023/07/01 00:59:32;;;;;;;23.60;14.30;;;16.60;65.80;;;;;;4982337;28;46097;-84
2023/07/01 01:02:02;;;;;;;27.57;14.50;;;16.60;65.80;;;;;;5001003;28;46522;-84
2023/07/01 01:05:01;;;;;;;25.00;15.20;;;16.50;65.80;;;;;;4997878;28;46297;-85
2023/07/01 01:07:34;;;;;;;25.50;14.17;;;16.50;66.20;;;;;;4982800;28;48381;-84
2023/07/01 01:10:10;;;;;;;25.80;14.67;;;16.50;66.10;;;;;;4973441;28;46388;-83
2023/07/01 01:12:38;;;;;;;26.00;14.60;;;16.40;66.10;;;;;;4997367;28;46425;-85
2023/07/01 01:15:05;;;;;;;26.27;14.73;;;16.40;66.30;;;;;;5000667;28;46745;-83
2023/07/01 01:17:34;;;;;;;28.73;14.87;;;16.30;66.30;;;;;;4984183;28;48091;-83
2023/07/01 01:20:12;;;;;;;41.70;14.27;;;16.30;66.60;;;;;;4998800;28;46473;-84
2023/07/01 01:22:51;;;;;;;28.23;14.37;;;16.30;66.80;;;;;;4996890;28;47188;-83
2023/07/01 01:25:24;;;;;;;25.20;14.53;;;16.30;66.50;;;;;;5000390;28;45793;-85
2023/07/01 01:27:54;;;;;;;23.00;13.80;;;16.50;66.40;;;;;;5000011;28;47224;-85
2023/07/01 01:30:25;;;;;;;25.90;14.83;;;16.40;65.70;;;;;;4980754;28;46640;-85
2023/07/01 01:32:51;;;;;;;28.77;14.63;;;16.50;65.30;;;;;;5001255;28;46444;-85
2023/07/01 01:35:17;;;;;;;26.23;15.53;;;16.60;65.10;;;;;;5000599;28;45786;-84
2023/07/01 01:37:49;;;;;;;25.63;14.83;;;16.60;64.70;;;;;;5000400;28;46247;-85
2023/07/01 01:40:23;;;;;;;26.27;14.47;;;16.70;64.50;;;;;;4995855;28;46610;-84
2023/07/01 01:42:51;;;;;;;27.27;15.43;;;16.70;64.40;;;;;;4999855;28;46248;-85
2023/07/01 01:45:19;;;;;;;29.60;15.07;;;16.60;64.80;;;;;;4998909;28;46557;-85
2023/07/01 01:47:46;;;;;;;24.70;13.33;;;16.60;64.60;;;;;;4980826;28;48059;-86
2023/07/01 01:50:15;;;;;;;22.63;13.40;;;16.60;64.70;;;;;;4982449;28;45859;-84
2023/07/01 01:52:41;;;;;;;21.63;12.80;;;16.50;64.70;;;;;;5001803;28;46829;-81
2023/07/01 01:55:11;;;;;;;22.73;14.13;;;16.60;64.40;;;;;;5001604;28;46519;-84
2023/07/01 01:57:37;;;;;;;23.50;13.40;;;16.60;64.30;;;;;;4997670;28;46404;-85
2023/07/01 02:00:08;;;;;;;25.70;14.10;;;16.70;64.50;;;;;;4999588;28;46171;-81
2023/07/01 02:02:35;;;;;;;23.77;14.50;;;16.60;64.20;;;;;;4986600;28;45852;-83
2023/07/01 02:05:01;;;;;;;21.30;12.37;;;16.70;64.00;;;;;;5003715;28;46427;-85
2023/07/01 02:07:26;;;;;;;20.73;13.37;;;16.70;63.80;;;;;;4999499;28;46490;-86
2023/07/01 02:09:52;;;;;;;19.33;11.40;;;16.90;64.00;;;;;;5004674;28;46465;-84
2023/07/01 02:12:18;;;;;;;24.17;12.13;;;16.80;63.60;;;;;;5001898;28;45859;-82
2023/07/01 02:14:43;;;;;;;21.33;12.30;;;16.90;63.80;;;;;;4981669;28;47308;-85
2023/07/01 02:17:09;;;;;;;20.80;12.77;;;17.00;63.90;;;;;;5000047;28;46514;-83
2023/07/01 02:19:34;;;;;;;20.07;12.00;;;16.90;63.80;;;;;;5003000;28;46547;-83
2023/07/01 02:22:00;;;;;;;19.97;11.57;;;16.90;63.70;;;;;;5002806;28;46421;-84
2023/07/01 02:24:25;;;;;;;18.57;11.50;;;16.90;63.70;;;;;;5002609;28;46631;-83
2023/07/01 02:26:51;;;;;;;20.60;11.70;;;16.90;63.60;;;;;;4999672;28;46452;-85
2023/07/01 02:29:17;;;;;;;21.17;12.60;;;17.00;63.50;;;;;;4996959;28;46423;-82
2023/07/01 02:31:42;;;;;;;22.20;12.60;;;17.10;63.50;;;;;;4980939;28;46427;-84
2023/07/01 02:34:08;;;;;;;19.53;11.43;;;17.00;63.40;;;;;;5000938;28;46396;-84
2023/07/01 02:36:34;;;;;;;18.63;11.70;;;17.00;63.20;;;;;;4974858;28;48366;-84
2023/07/01 02:38:59;;;;;;;19.13;10.70;;;17.00;63.20;;;;;;4996432;28;46263;-85
2023/07/01 02:41:25;;;;;;;21.63;12.07;;;17.00;63.20;;;;;;4981291;28;46809;-84
2023/07/01 02:43:50;;;;;;;18.20;11.23;;;17.00;63.10;;;;;;5001857;28;46651;-84
2023/07/01 02:46:16;;;;;;;16.93;11.13;;;17.10;62.90;;;;;;4985013;28;47942;-83
2023/07/01 02:48:41;;;;;;;26.03;11.37;;;17.10;62.90;;;;;;4999591;28;46647;-85
2023/07/01 02:51:07;;;;;;;20.20;11.17;;;17.20;63.00;;;;;;4985968;28;46457;-84
2023/07/01 02:53:33;;;;;;;22.03;10.97;;;17.20;62.90;;;;;;5004856;28;46586;-84
2023/07/01 02:55:58;;;;;;;24.20;10.63;;;17.20;62.90;;;;;;4984506;28;48445;-85
2023/07/01 02:58:24;;;;;;;23.27;12.83;;;17.20;62.90;;;;;;5000066;28;46385;-83
2023/07/01 03:00:50;;;;;;;20.00;11.07;;;17.20;63.30;;;;;;5005336;28;46365;-84
2023/07/01 03:03:17;;;;;;;23.03;12.50;;;17.30;63.20;;;;;;5003971;28;46365;-83
2023/07/01 03:05:43;;;;;;;21.37;11.93;;;17.20;63.00;;;;;;5001038;28;46696;-84
2023/07/01 03:08:08;;;;;;;25.50;12.70;;;17.20;63.20;;;;;;4998305;28;46755;-82
2023/07/01 03:10:34;;;;;;;22.37;11.90;;;17.20;64.30;;;;;;5001800;28;46184;-83
2023/07/01 03:13:00;;;;;;;21.53;12.43;;;17.20;63.10;;;;;;5005655;28;46746;-85
2023/07/01 03:15:25;;;;;;;21.33;12.13;;;17.10;63.40;;;;;;5000397;28;46535;-83
2023/07/01 03:17:52;;;;;;;24.70;12.20;;;16.90;64.10;;;;;;5003084;28;46637;-85
2023/07/01 03:20:24;;;;;;;23.33;12.13;;;16.90;64.40;;;;;;4984942;28;46497;-84
2023/07/01 03:22:56;;;;;;;25.23;12.63;;;16.90;64.50;;;;;;5003038;28;46445;-84
2023/07/01 03:25:23;;;;;;;24.50;12.17;;;16.80;64.60;;;;;;5000386;28;46902;-85
2023/07/01 03:27:48;;;;;;;24.47;12.67;;;16.80;64.50;;;;;;5001944;28;46480;-86
2023/07/01 03:30:16;;;;;;;20.07;12.67;;;16.90;64.50;;;;;;5003588;28;46401;-84
2023/07/01 03:32:43;;;;;;;22.97;11.90;;;17.00;64.10;;;;;;5003214;28;46465;-83
2023/07/01 03:35:09;;;;;;;22.13;12.80;;;17.10;63.90;;;;;;5000876;28;46813;-83
2023/07/01 03:37:36;;;;;;;23.10;12.53;;;17.10;63.60;;;;;;5004200;28;45820;-85
2023/07/01 03:40:03;;;;;;;21.57;13.50;;;17.20;63.50;;;;;;4985027;28;46450;-85
2023/07/01 03:42:29;;;;;;;22.53;13.77;;;17.20;63.50;;;;;;5002109;28;47004;-83
2023/07/01 03:44:54;;;;;;;21.00;12.97;;;17.20;63.50;;;;;;5004235;28;47377;-84
2023/07/01 03:47:20;;;;;;;20.00;12.87;;;17.20;63.50;;;;;;5004187;28;47802;-85
2023/07/01 03:49:45;;;;;;;21.53;12.87;;;17.30;63.60;;;;;;4985975;28;46548;-83
2023/07/01 03:52:11;;;;;;;19.40;12.40;;;17.20;63.50;;;;;;4983690;28;46256;-83
2023/07/01 03:54:36;;;;;;;24.73;14.33;;;17.30;63.70;;;;;;5006210;28;46558;-83
2023/07/01 03:57:02;;;;;;;20.53;12.53;;;17.30;63.70;;;;;;5005453;28;46518;-85
2023/07/01 03:59:27;;;;;;;21.17;12.40;;;17.30;63.70;;;;;;4988573;28;46582;-85
2023/07/01 04:01:53;;;;;;;16.60;10.07;;;17.40;63.80;;;;;;4986246;28;46445;-86
2023/07/01 04:04:19;;;;;;;18.30;11.20;;;17.40;63.70;;;;;;5005468;28;46962;-84
2023/07/01 04:06:44;;;;;;;18.03;11.20;;;17.50;63.60;;;;;;4989263;28;46678;-84
2023/07/01 04:09:12;;;;;;;22.43;10.17;;;17.60;63.50;;;;;;4987294;28;46556;-82
2023/07/01 04:11:39;;;;;;;15.33;10.00;;;17.60;63.50;;;;;;5005064;28;46423;-86
2023/07/01 04:14:04;;;;;;;22.30;9.40;;;17.60;63.30;;;;;;5004549;28;47582;-83
2023/07/01 04:16:30;;;;;;;17.33;8.80;;;17.60;63.40;;;;;;4984015;28;45847;-85
2023/07/01 04:18:56;;;;;;;13.10;8.20;;;17.50;63.30;;;;;;5001380;28;46491;-83
2023/07/01 04:21:22;;;;;;;14.77;9.20;;;17.60;63.50;;;;;;5001501;28;46666;-85
2023/07/01 04:23:48;;;;;;;13.80;8.43;;;17.50;63.40;;;;;;5003243;28;46381;-83
2023/07/01 04:26:14;;;;;;;19.80;8.83;;;17.60;63.40;;;;;;4981187;28;46522;-83
2023/07/01 04:28:39;;;;;;;15.07;8.20;;;17.60;63.50;;;;;;4984920;28;46451;-84
2023/07/01 04:31:05;;;;;;;15.23;8.33;;;17.70;63.70;;;;;;5004154;28;46487;-83
2023/07/01 04:33:31;;;;;;;16.37;7.63;;;17.50;63.50;;;;;;4984201;28;48321;-85
2023/07/01 04:35:56;;;;;;;15.67;7.73;;;17.60;63.50;;;;;;5000408;28;46952;-85
2023/07/01 04:38:22;;;;;;;14.63;7.90;;;17.60;63.50;;;;;;4983971;28;46499;-82
2023/07/01 04:40:47;;;;;;;11.60;7.30;;;17.60;63.40;;;;;;4984667;28;46958;-84
2023/07/01 04:43:13;;;;;;;14.20;7.60;;;17.60;63.50;;;;;;4984680;28;48017;-82
2023/07/01 04:45:41;;;;;;;10.37;7.13;;;17.60;63.50;;;;;;4998061;28;46419;-83
2023/07/01 04:48:07;;;;;;;15.17;7.30;;;17.60;63.40;;;;;;5001745;28;46591;-84
2023/07/01 04:50:33;;;;;;;11.60;6.80;;;17.70;63.40;;;;;;5002655;28;46486;-85
2023/07/01 04:52:58;;;;;;;13.10;6.80;;;17.70;63.10;;;;;;5000488;28;46404;-85
2023/07/01 04:55:24;;;;;;;12.10;7.67;;;17.80;63.00;;;;;;4999142;28;46533;-86
2023/07/01 04:57:51;;;;;;;11.50;6.77;;;17.80;62.90;;;;;;5000538;28;46467;-84
2023/07/01 05:00:18;;;;;;;11.90;6.00;;;17.90;63.20;;;;;;5001274;28;46158;-85
2023/07/01 05:02:43;;;;;;;11.07;6.63;;;17.80;62.90;;;;;;4981862;28;48195;-84
2023/07/01 05:05:10;;;;;;;11.80;6.30;;;17.80;62.90;;;;;;5002602;28;46328;-83
2023/07/01 05:07:36;;;;;;;9.93;6.23;;;17.80;62.80;;;;;;4986290;28;45941;-85
2023/07/01 05:10:02;;;;;;;9.73;6.37;;;17.90;62.90;;;;;;4999553;28;46513;-84
2023/07/01 05:12:27;;;;;;;10.30;6.40;;;17.90;62.60;;;;;;4974488;28;48314;-84
2023/07/01 05:14:54;;;;;;;10.47;6.00;;;18.00;62.60;;;;;;5001939;28;46321;-84
2023/07/01 05:17:20;;;;;;;10.13;6.00;;;17.90;62.50;;;;;;4998425;28;46278;-82
2023/07/01 05:19:46;;;;;;;11.37;6.10;;;18.00;62.50;;;;;;4997970;28;46745;-84
2023/07/01 05:22:11;;;;;;;10.40;6.40;;;18.10;63.50;;;;;;4997689;28;46452;-85
2023/07/01 05:24:37;;;;;;;15.83;6.27;;;18.10;61.90;;;;;;5001568;28;46281;-83
2023/07/01 05:27:03;;;;;;;11.47;6.47;;;18.20;61.90;;;;;;5003734;28;46432;-85
2023/07/01 05:29:28;;;;;;;10.30;6.40;;;18.30;61.70;;;;;;5003122;28;46459;-82
2023/07/01 05:31:55;;;;;;;10.90;6.17;;;18.30;61.40;;;;;;5006509;28;46468;-83
2023/07/01 05:34:22;;;;;;;12.40;6.00;;;18.40;61.30;;;;;;5005498;28;46470;-83
2023/07/01 05:36:48;;;;;;;13.03;6.07;;;18.60;60.80;;;;;;5004959;28;46466;-84
2023/07/01 05:39:13;;;;;;;11.00;6.13;;;18.50;60.70;;;;;;4981328;28;46554;-83
2023/07/01 05:41:40;;;;;;;8.50;5.27;;;18.70;60.60;;;;;;5003221;28;46472;-86
2023/07/01 05:44:06;;;;;;;11.70;5.63;;;18.80;60.60;;;;;;4999694;28;46557;-81
2023/07/01 05:46:31;;;;;;;15.37;5.60;;;19.00;61.10;;;;;;5001640;28;46495;-84
2023/07/01 05:48:57;;;;;;;12.30;5.93;;;19.30;60.10;;;;;;4999901;28;46513;-84
2023/07/01 05:51:22;;;;;;;14.87;5.80;;;19.60;60.00;;;;;;4981004;28;47888;-83
2023/07/01 05:53:48;;;;;;;13.53;6.10;;;19.90;59.40;;;;;;4999031;28;46406;-84
2023/07/01 05:56:15;;;;;;;11.50;5.13;;;19.90;59.30;;;;;;4998376;28;46429;-83
2023/07/01 05:58:40;;;;;;;11.60;6.03;;;20.00;59.10;;;;;;4999457;28;46402;-82
2023/07/01 06:01:06;;;;;;;9.10;5.67;;;20.10;58.60;;;;;;4999578;28;46510;-83
2023/07/01 06:03:32;;;;;;;13.73;5.93;;;20.30;58.10;;;;;;4980281;28;46786;-82
2023/07/01 06:05:57;;;;;;;8.03;5.30;;;20.70;57.80;;;;;;4997400;28;46551;-83
2023/07/01 06:08:23;;;;;;;9.47;5.60;;;20.90;57.40;;;;;;4999083;28;46583;-84
2023/07/01 06:10:49;;;;;;;8.43;5.10;;;21.20;56.90;;;;;;5001499;28;47041;-83
2023/07/01 06:13:15;;;;;;;7.03;4.43;;;21.20;56.10;;;;;;4999369;28;46690;-84
2023/07/01 06:15:40;;;;;;;8.97;5.40;;;21.20;55.50;;;;;;4999353;28;46451;-83
2023/07/01 06:18:06;;;;;;;12.20;5.90;;;21.30;55.10;;;;;;5000861;28;46563;-82
2023/07/01 06:20:32;;;;;;;9.77;5.10;;;21.40;54.90;;;;;;5001188;28;47043;-81
2023/07/01 06:22:57;;;;;;;7.30;5.03;;;21.70;54.10;;;;;;4983624;28;46962;-84
2023/07/01 06:25:23;;;;;;;8.23;5.07;;;22.10;51.90;;;;;;5001784;28;45765;-83
2023/07/01 06:27:48;;;;;;;10.83;5.40;;;22.40;49.90;;;;;;4984390;28;46330;-83
2023/07/01 06:30:14;;;;;;;7.70;4.80;;;22.60;48.50;;;;;;5003332;28;46394;-82
2023/07/01 06:32:40;;;;;;;8.23;4.90;;;22.60;46.80;;;;;;4982564;28;46405;-81
2023/07/01 06:35:06;;;;;;;14.50;5.73;;;22.30;47.30;;;;;;5004820;28;46481;-82
2023/07/01 06:37:31;;;;;;;9.30;5.10;;;22.20;47.20;;;;;;4984986;28;46668;-80
2023/07/01 06:39:57;;;;;;;8.20;4.73;;;22.20;46.80;;;;;;4984976;28;48265;-82
2023/07/01 06:42:22;;;;;;;8.33;5.57;;;22.20;46.60;;;;;;4999179;28;46819;-82
2023/07/01 06:44:48;;;;;;;8.67;5.50;;;22.30;46.10;;;;;;5002299;28;46826;-82
2023/07/01 06:47:14;;;;;;;8.30;5.20;;;22.30;45.10;;;;;;5002156;28;46376;-83
2023/07/01 06:49:39;;;;;;;6.63;4.50;;;22.30;44.60;;;;;;5002523;28;47071;-82
2023/07/01 06:52:05;;;;;;;17.00;5.37;;;22.50;44.10;;;;;;4997727;28;46498;-83
2023/07/01 06:54:31;;;;;;;17.07;4.70;;;22.70;42.90;;;;;;5001242;28;46750;-83
2023/07/01 06:56:56;;;;;;;14.03;5.27;;;22.60;42.30;;;;;;5002092;28;46479;-83
2023/07/01 06:59:22;;;;;;;8.73;4.83;;;22.70;41.90;;;;;;5002662;28;48449;-83
2023/07/01 07:01:48;;;;;;;9.60;4.87;;;22.70;41.80;;;;;;5004612;28;46380;-84
2023/07/01 07:04:13;;;;;;;8.17;5.23;;;22.60;41.80;;;;;;5005676;28;46369;-85
2023/07/01 07:06:39;;;;;;;9.00;5.17;;;22.40;42.10;;;;;;5005471;28;46407;-84
2023/07/01 07:09:05;;;;;;;8.50;4.93;;;22.20;42.10;;;;;;5004116;28;46408;-84
2023/07/01 07:11:31;;;;;;;11.03;4.37;;;22.20;41.70;;;;;;4985397;28;46990;-82
2023/07/01 07:13:57;;;;;;;12.47;5.10;;;22.20;41.40;;;;;;5005364;28;46544;-83
2023/07/01 07:16:23;;;;;;;8.83;5.30;;;22.40;41.00;;;;;;5003786;28;46642;-80
2023/07/01 07:18:48;;;;;;;8.73;4.57;;;22.60;40.40;;;;;;5004019;28;46457;-85
2023/07/01 07:21:14;;;;;;;7.23;4.27;;;22.70;39.70;;;;;;4982114;28;46936;-82
2023/07/01 07:23:39;;;;;;;9.80;5.03;;;22.80;39.50;;;;;;5005161;28;46750;-83
2023/07/01 07:26:07;;;;;;;9.30;5.00;;;23.10;38.40;;;;;;5008605;28;46306;-83
2023/07/01 07:28:33;;;;;;;7.87;4.47;;;23.20;38.10;;;;;;5006285;28;46372;-78
2023/07/01 07:30:59;;;;;;;10.43;5.63;;;23.50;37.30;;;;;;5007458;28;46527;-82
2023/07/01 07:33:24;;;;;;;8.17;5.20;;;23.20;37.00;;;;;;5003803;28;46410;-80
2023/07/01 07:35:50;;;;;;;9.30;4.93;;;23.30;37.10;;;;;;5002008;28;46520;-81
2023/07/01 07:38:15;;;;;;;11.10;4.57;;;23.50;36.20;;;;;;5002082;28;46545;-82
2023/07/01 07:40:42;;;;;;;8.47;4.43;;;23.50;35.50;;;;;;4985019;28;46448;-83
2023/07/01 07:43:11;;;;;;;9.97;5.13;;;23.50;35.70;;;;;;4984513;28;45789;-83
2023/07/01 07:45:37;;;;;;;6.50;4.57;;;23.90;34.30;;;;;;4999149;28;46496;-85
2023/07/01 07:48:04;;;;;;;9.30;4.43;;;24.20;33.10;;;;;;5002354;28;46359;-83
2023/07/01 07:50:29;;;;;;;8.80;4.23;;;24.10;33.00;;;;;;4999091;28;45812;-83
2023/07/01 07:52:55;;;;;;;7.67;4.63;;;23.50;31.70;;;;;;5002689;28;47177;-82
2023/07/01 07:55:20;;;;;;;8.87;4.63;;;23.20;31.90;;;;;;5001515;28;46531;-83
2023/07/01 07:57:46;;;;;;;6.00;3.97;;;23.40;31.60;;;;;;4996240;28;47345;-81
2023/07/01 08:00:12;;;;;;;9.00;4.10;;;23.80;30.80;;;;;;5000488;28;46463;-82
2023/07/01 08:02:42;;;;;;;11.60;4.70;;;24.10;29.80;;;;;;4996690;28;46735;-84
2023/07/01 08:05:08;;;;;;;12.23;4.80;;;24.60;29.10;;;;;;4983322;28;46515;-82
2023/07/01 08:07:33;;;;;;;9.60;5.00;;;24.80;28.20;;;;;;4999958;28;47553;-81
2023/07/01 08:09:59;;;;;;;8.60;5.10;;;25.10;27.40;;;;;;4998687;28;46519;-81
2023/07/01 08:12:24;;;;;;;10.10;4.60;;;25.40;26.20;;;;;;4982417;28;46476;-80
2023/07/01 08:14:50;;;;;;;7.50;4.63;;;25.20;26.10;;;;;;4984066;28;46574;-84
2023/07/01 08:17:16;;;;;;;6.77;4.40;;;25.00;26.00;;;;;;4995352;28;46579;-82
2023/07/01 08:19:41;;;;;;;12.83;4.77;;;24.80;25.80;;;;;;4982182;28;47170;-83
2023/07/01 08:22:07;;;;;;;13.90;4.93;;;24.80;25.80;;;;;;5002822;28;46208;-83
2023/07/01 08:24:32;;;;;;;10.03;4.93;;;24.60;25.70;;;;;;4982792;28;46234;-83
2023/07/01 08:26:59;;;;;;;8.70;4.30;;;24.40;26.10;;;;;;4999948;28;47085;-83
2023/07/01 08:29:25;;;;;;;6.03;4.17;;;24.30;26.70;;;;;;4996790;28;46416;-84
2023/07/01 08:31:50;;;;;;;8.63;4.80;;;23.70;26.90;;;;;;5002144;28;46364;-83
2023/07/01 08:34:16;;;;;;;9.30;4.80;;;23.40;27.50;;;;;;5005985;28;46477;-83
2023/07/01 08:36:41;;;;;;;8.80;4.50;;;23.20;27.60;;;;;;5004845;28;46587;-83
2023/07/01 08:39:07;;;;;;;8.50;5.10;;;23.00;27.90;;;;;;4984930;28;47257;-85
2023/07/01 08:41:42;;;;;;;8.00;4.43;;;23.00;27.90;;;;;;5001272;28;46411;-86
2023/07/01 08:44:10;;;;;;;6.70;4.50;;;23.10;27.50;;;;;;5004162;28;45945;-86
2023/07/01 08:46:37;;;;;;;7.30;4.40;;;23.70;27.20;;;;;;4999456;28;48256;-85
2023/07/01 08:49:03;;;;;;;8.13;4.40;;;24.00;25.90;;;;;;5002335;28;46414;-87
2023/07/01 08:51:37;;;;;;;13.33;4.83;;;23.90;25.20;;;;;;4986555;28;46709;-84
2023/07/01 08:54:04;;;;;;;8.97;4.10;;;23.90;25.20;;;;;;5005215;28;46463;-87
2023/07/01 08:56:30;;;;;;;8.20;4.40;;;23.80;25.10;;;;;;5000926;28;46863;-85
2023/07/01 08:58:56;;;;;;;6.43;4.10;;;24.00;25.30;;;;;;4997801;28;46308;-82
2023/07/01 09:01:21;;;;;;;7.80;4.23;;;24.10;25.00;;;;;;5004103;28;46453;-84
2023/07/01 09:03:49;;;;;;;6.40;4.20;;;23.70;25.00;;;;;;4982273;28;46935;-83
2023/07/01 09:06:15;;;;;;;7.93;4.30;;;23.80;25.10;;;;;;5005024;28;46353;-82
2023/07/01 09:08:40;;;;;;;9.57;4.63;;;23.50;25.00;;;;;;5005462;28;46580;-84
2023/07/01 09:11:10;;;;;;;10.10;4.30;;;23.40;24.80;;;;;;4984970;28;46515;-82
2023/07/01 09:13:36;;;;;;;7.17;3.87;;;23.20;25.30;;;;;;5005516;28;46515;-85
2023/07/01 09:16:01;;;;;;;9.03;4.73;;;22.90;25.70;;;;;;5005739;28;46247;-87
2023/07/01 09:18:29;;;;;;;14.40;3.93;;;22.80;26.10;;;;;;5003866;28;45803;-84
2023/07/01 09:20:55;;;;;;;6.23;3.47;;;22.70;26.10;;;;;;5001520;28;46185;-86
2023/07/01 09:23:29;;;;;;;9.20;4.50;;;22.60;26.30;;;;;;5000049;28;46691;-85
2023/07/01 09:26:06;;;;;;;9.17;4.43;;;22.60;26.40;;;;;;4982724;28;49429;-82
2023/07/01 09:28:33;;;;;;;7.73;4.63;;;22.70;26.20;;;;;;4983848;28;46460;-82
2023/07/01 09:31:06;;;;;;;10.30;4.53;;;22.90;26.10;;;;;;4985099;28;46563;-82
2023/07/01 09:33:34;;;;;;;7.00;3.90;;;23.20;25.60;;;;;;5003759;28;46542;-80
2023/07/01 09:36:03;;;;;;;6.80;4.00;;;23.50;24.90;;;;;;5004180;28;46729;-84
2023/07/01 09:38:50;;;;;;;9.53;4.70;;;23.80;25.10;;;;;;5002610;28;46353;-84
2023/07/01 09:41:18;;;;;;;8.03;3.60;;;24.10;24.30;;;;;;5002488;28;47420;-85
2023/07/01 09:43:44;;;;;;;8.10;4.23;;;24.30;23.70;;;;;;4976888;28;46021;-83
2023/07/01 09:46:09;;;;;;;6.50;4.13;;;24.50;23.40;;;;;;5001713;28;46639;-83
2023/07/01 09:48:36;;;;;;;7.57;3.20;;;24.60;23.10;;;;;;5000411;28;46551;-85
2023/07/01 09:51:05;;;;;;;6.53;4.10;;;24.50;23.00;;;;;;5006064;28;46587;-87
2023/07/01 09:53:33;;;;;;;6.37;4.10;;;24.50;23.40;;;;;;5001064;28;46227;-85
2023/07/01 09:56:04;;;;;;;7.37;4.40;;;24.60;24.10;;;;;;4998997;28;48218;-84
2023/07/01 09:58:33;;;;;;;5.37;3.57;;;24.50;24.30;;;;;;4987131;28;46539;-84
2023/07/01 10:01:00;;;;;;;10.10;4.53;;;24.40;24.30;;;;;;4998298;28;46560;-82
2023/07/01 10:03:26;;;;;;;8.00;3.70;;;24.20;24.50;;;;;;4998136;28;46360;-81
2023/07/01 10:05:52;;;;;;;11.50;4.00;;;24.30;24.10;;;;;;4978109;28;47439;-81
2023/07/01 10:08:17;;;;;;;7.57;3.67;;;24.90;23.00;;;;;;4981909;28;47134;-80
2023/07/01 10:10:44;;;;;;;9.50;3.70;;;25.60;23.00;;;;;;5002133;28;46447;-82
2023/07/01 10:13:11;;;;;;;7.80;3.87;;;25.90;20.50;;;;;;5000896;28;46605;-82
2023/07/01 10:15:39;;;;;;;7.07;4.63;;;25.90;19.60;;;;;;5001311;28;46570;-81
2023/07/01 10:18:21;;;;;;;7.80;3.70;;;26.00;19.60;;;;;;4985801;28;46446;-81
2023/07/01 10:20:46;;;;;;;6.83;3.60;;;26.10;18.90;;;;;;4998332;28;46445;-81
2023/07/01 10:23:12;;;;;;;6.47;4.10;;;26.00;20.20;;;;;;4997956;28;47314;-83
2023/07/01 10:25:39;;;;;;;4.90;3.13;;;26.00;19.10;;;;;;4997635;28;48266;-83
2023/07/01 10:28:10;;;;;;;5.80;3.80;;;25.70;19.70;;;;;;5000193;28;46867;-81
2023/07/01 10:30:44;;;;;;;5.37;3.30;;;25.00;20.20;;;;;;5003907;28;46946;-82
2023/07/01 10:33:30;;;;;;;5.93;3.40;;;24.80;21.00;;;;;;5000904;28;46650;-83
2023/07/01 10:36:17;;;;;;;6.67;3.53;;;25.10;20.70;;;;;;5002251;28;46532;-83
2023/07/01 10:38:43;;;;;;;9.53;3.37;;;25.30;20.10;;;;;;4982812;28;47560;-84
2023/07/01 10:41:09;;;;;;;7.50;3.80;;;25.40;19.90;;;;;;4998889;28;46726;-82
2023/07/01 10:43:38;;;;;;;5.33;3.50;;;25.50;19.70;;;;;;5000822;28;46508;-84
2023/07/01 10:46:19;;;;;;;5.20;3.10;;;25.30;19.60;;;;;;5000966;28;47440;-85
2023/07/01 10:49:03;;;;;;;8.50;3.40;;;25.30;19.40;;;;;;4997460;28;46494;-86
2023/07/01 10:51:52;;;;;;;9.37;3.80;;;25.20;19.40;;;;;;4998947;28;47226;-83
2023/07/01 10:54:30;;;;;;;8.50;4.47;;;25.00;19.70;;;;;;4999881;28;45741;-84
2023/07/01 10:57:12;;;;;;;12.20;5.33;;;25.00;19.40;;;;;;4999723;28;46531;-83
2023/07/01 10:59:38;;;;;;;9.73;3.33;;;25.00;19.30;;;;;;4980751;28;46914;-84
2023/07/01 11:02:03;;;;;;;6.30;3.17;;;24.80;19.70;;;;;;4997357;28;46553;-82
2023/07/01 11:05:03;;;;;;;10.57;3.20;;;24.50;20.00;;;;;;4997656;28;46503;-81
2023/07/01 11:07:29;;;;;;;23.67;3.53;;;24.20;20.30;;;;;;4979619;28;48440;-83
2023/07/01 11:09:55;;;;;;;9.43;3.47;;;24.20;21.30;;;;;;5003482;28;46474;-81
2023/07/01 11:12:23;;;;;;;7.80;3.67;;;24.40;21.40;;;;;;4983550;28;46434;-86
2023/07/01 11:14:52;;;;;;;5.53;3.20;;;24.60;21.40;;;;;;5001256;28;46463;-82
2023/07/01 11:17:20;;;;;;;11.47;3.93;;;24.80;21.30;;;;;;5000693;28;48512;-83
2023/07/01 11:19:46;;;;;;;12.60;3.57;;;24.70;21.30;;;;;;4985646;28;46984;-82
2023/07/01 11:22:13;;;;;;;9.17;3.83;;;24.40;21.60;;;;;;5001284;28;46516;-83
2023/07/01 11:24:39;;;;;;;8.50;3.80;;;24.40;21.80;;;;;;5003331;28;46304;-81
2023/07/01 11:27:08;;;;;;;8.63;3.23;;;24.40;21.80;;;;;;5002733;28;46897;-82
2023/07/01 11:29:35;;;;;;;6.67;3.43;;;24.20;21.80;;;;;;5001343;28;46516;-84
2023/07/01 11:32:02;;;;;;;7.97;3.70;;;24.20;22.00;;;;;;5001018;28;46460;-85
2023/07/01 11:34:29;;;;;;;5.43;3.20;;;24.00;22.10;;;;;;5002849;28;46536;-84
2023/07/01 11:36:55;;;;;;;4.70;3.00;;;24.30;21.80;;;;;;5002144;28;46732;-85
2023/07/01 11:39:21;;;;;;;6.50;3.57;;;24.40;21.20;;;;;;4982813;28;46480;-84
2023/07/01 11:41:55;;;;;;;8.07;3.53;;;24.50;20.60;;;;;;5001358;28;46521;-82
2023/07/01 11:44:25;;;;;;;7.80;2.97;;;24.90;19.70;;;;;;5002677;28;46044;-85
2023/07/01 11:46:54;;;;;;;7.30;3.23;;;25.10;18.90;;;;;;5003060;28;48050;-86
2023/07/01 11:49:25;;;;;;;4.97;3.10;;;25.10;18.80;;;;;;5000517;28;46458;-80
2023/07/01 11:51:51;;;;;;;5.77;3.10;;;25.00;18.70;;;;;;5003839;28;46527;-80
2023/07/01 11:54:20;;;;;;;6.40;2.97;;;24.60;19.10;;;;;;5004268;28;46659;-85
2023/07/01 11:56:47;;;;;;;4.93;2.90;;;24.50;19.50;;;;;;4999818;28;46420;-79
2023/07/01 11:59:31;;;;;;;9.93;2.90;;;24.40;19.40;;;;;;4982776;28;46547;-82
2023/07/01 12:01:58;;;;;;;5.70;2.83;;;24.70;19.20;;;;;;5003760;28;47033;-82
2023/07/01 12:04:24;;;;;;;5.50;3.47;;;25.10;18.30;;;;;;5000633;28;45964;-82
2023/07/01 12:06:50;;;;;;;5.10;3.13;;;25.60;18.40;;;;;;5002337;28;46788;-83
2023/07/01 12:09:29;;;;;;;5.43;2.50;;;25.90;16.90;;;;;;5004010;28;46470;-85
2023/07/01 12:11:55;;;;;;;5.50;2.80;;;26.20;15.50;;;;;;5003170;28;46616;-87
2023/07/01 12:14:24;;;;;;;5.10;2.67;;;26.50;15.70;;;;;;5000628;28;46597;-85
2023/07/01 12:16:51;;;;;;;5.63;2.60;;;26.50;15.70;;;;;;5002619;28;46451;-81
2023/07/01 12:19:18;;;;;;;6.00;2.83;;;26.50;15.70;;;;;;4988334;28;46750;-84
2023/07/01 12:21:44;;;;;;;5.00;2.80;;;26.00;15.40;;;;;;5000413;28;46821;-81
2023/07/01 12:24:36;;;;;;;5.57;3.00;;;25.80;15.70;;;;;;4999608;28;47366;-82
2023/07/01 12:27:04;;;;;;;8.83;3.47;;;25.50;15.80;;;;;;4984610;28;48172;-82
2023/07/01 12:29:29;;;;;;;5.50;3.00;;;25.50;16.10;;;;;;5001572;28;47159;-83
2023/07/01 12:31:57;;;;;;;5.60;3.23;;;25.80;16.30;;;;;;4998556;28;46919;-81
2023/07/01 12:34:24;;;;;;;11.63;3.90;;;25.50;15.90;;;;;;5000345;28;46710;-81
2023/07/01 12:36:50;;;;;;;6.30;3.40;;;25.40;15.20;;;;;;5002137;28;46434;-84
2023/07/01 12:39:19;;;;;;;8.63;4.00;;;25.20;14.90;;;;;;4996992;28;46468;-82